createdAt,value
2022-08-09T00:01:17.513Z,19.05
2022-08-09T00:04:00.180Z,19.04
2022-08-09T00:06:31.996Z,19.09
2022-08-09T00:08:59.680Z,19.16
2022-08-09T00:12:01.522Z,19.40
2022-08-09T00:14:17.285Z,19.40
2022-08-09T00:16:50.517Z,19.26
2022-08-09T00:24:22.090Z,19.23
2022-08-09T00:26:52.527Z,19.32
2022-08-09T00:29:39.686Z,19.16
2022-08-09T00:32:07.894Z,19.02
2022-08-09T00:34:40.227Z,18.88
2022-08-09T00:37:19.442Z,18.80
2022-08-09T00:40:13.262Z,18.69
2022-08-09T00:47:39.673Z,18.50
2022-08-09T00:50:08.481Z,18.42
2022-08-09T00:52:42.838Z,18.33
2022-08-09T00:55:16.880Z,18.23
2022-08-09T00:57:59.080Z,18.15
2022-08-09T01:00:27.950Z,18.10
2022-08-09T01:03:06.913Z,18.06
2022-08-09T01:10:51.917Z,17.81
2022-08-09T01:13:31.149Z,17.92
2022-08-09T01:16:12.945Z,17.89
2022-08-09T01:18:47.678Z,17.95
2022-08-09T01:21:45.144Z,17.96
2022-08-09T01:24:35.588Z,18.06
2022-08-09T01:30:35.576Z,17.99
2022-08-09T01:33:18.285Z,18.05
2022-08-09T01:35:51.964Z,18.12
2022-08-09T01:38:24.557Z,18.15
2022-08-09T01:41:05.098Z,18.24
2022-08-09T01:43:51.309Z,18.34
2022-08-09T01:46:25.099Z,18.21
2022-08-09T01:54:01.674Z,18.50
2022-08-09T01:56:31.271Z,18.47
2022-08-09T01:59:02.333Z,18.33
2022-08-09T02:01:59.925Z,18.21
2022-08-09T02:04:22.050Z,18.31
2022-08-09T02:07:17.850Z,18.29
2022-08-09T02:18:00.176Z,17.79
2022-08-09T02:20:38.535Z,17.62
2022-08-09T02:23:10.067Z,17.43
2022-08-09T02:25:42.357Z,17.31
2022-08-09T02:28:17.974Z,17.15
2022-08-09T02:30:50.633Z,17.09
2022-08-09T02:37:06.762Z,17.08
2022-08-09T02:39:41.840Z,17.15
2022-08-09T02:42:16.193Z,17.08
2022-08-09T02:44:48.251Z,17.16
2022-08-09T02:47:18.724Z,17.16
2022-08-09T02:49:55.413Z,17.20
2022-08-09T02:52:50.195Z,17.14
2022-08-09T03:00:25.919Z,17.10
2022-08-09T03:02:58.505Z,17.12
2022-08-09T03:05:34.564Z,17.10
2022-08-09T03:08:04.844Z,17.06
2022-08-09T03:10:34.742Z,17.03
2022-08-09T03:13:03.230Z,16.98
2022-08-09T03:16:04.909Z,16.96
2022-08-09T03:23:30.549Z,16.93
2022-08-09T03:26:03.720Z,16.89
2022-08-09T03:28:34.761Z,16.91
2022-08-09T03:31:09.889Z,16.89
2022-08-09T03:33:54.546Z,16.94
2022-08-09T03:36:27.483Z,16.92
2022-08-09T03:38:57.050Z,16.97
2022-08-09T03:46:04.251Z,17.01
2022-08-09T03:48:36.982Z,17.06
2022-08-09T03:51:55.814Z,17.06
2022-08-09T03:54:00.914Z,17.11
2022-08-09T03:56:30.701Z,17.08
2022-08-09T03:58:58.357Z,17.11
2022-08-09T04:01:27.111Z,17.14
2022-08-09T04:09:02.704Z,17.22
2022-08-09T04:12:30.975Z,17.30
2022-08-09T04:15:01.709Z,17.26
2022-08-09T04:17:31.449Z,17.38
2022-08-09T04:20:02.584Z,17.45
2022-08-09T04:22:32.016Z,17.50
2022-08-09T04:25:01.277Z,17.59
2022-08-09T04:32:37.005Z,17.75
2022-08-09T04:35:08.705Z,17.77
2022-08-09T04:37:45.049Z,17.74
2022-08-09T04:40:29.034Z,17.78
2022-08-09T04:43:02.494Z,17.83
2022-08-09T04:45:35.939Z,17.89
2022-08-09T04:48:12.242Z,17.97
2022-08-09T04:55:37.902Z,18.35
2022-08-09T04:58:09.807Z,18.38
2022-08-09T05:00:37.575Z,18.45
2022-08-09T05:03:30.124Z,18.61
2022-08-09T05:06:07.016Z,18.88
2022-08-09T05:08:35.667Z,19.06
2022-08-09T05:11:07.489Z,19.22
2022-08-09T05:18:57.640Z,19.60
2022-08-09T05:21:30.202Z,19.85
2022-08-09T05:24:05.164Z,20.02
2022-08-09T05:26:36.791Z,20.17
2022-08-09T05:29:16.981Z,20.36
2022-08-09T05:31:51.948Z,20.64
2022-08-09T05:39:53.253Z,21.20
2022-08-09T05:42:27.901Z,21.45
2022-08-09T05:44:56.346Z,21.65
2022-08-09T05:47:27.080Z,21.92
2022-08-09T05:50:25.210Z,22.09
2022-08-09T05:52:53.587Z,22.41
2022-08-09T05:55:23.922Z,22.72
2022-08-09T06:02:57.385Z,23.59
2022-08-09T06:05:49.745Z,23.78
2022-08-09T06:08:13.100Z,23.87
2022-08-09T06:10:40.997Z,24.04
2022-08-09T06:13:18.367Z,24.36
2022-08-09T06:15:51.121Z,24.57
2022-08-09T06:18:23.834Z,24.69
2022-08-09T06:26:01.566Z,25.15
2022-08-09T06:28:31.883Z,25.30
2022-08-09T06:30:59.501Z,25.42
2022-08-09T06:33:39.873Z,25.55
2022-08-09T06:36:13.631Z,25.80
2022-08-09T06:38:47.214Z,25.96
2022-08-09T06:41:20.409Z,26.09
2022-08-09T06:48:48.653Z,26.62
2022-08-09T06:51:16.647Z,26.76
2022-08-09T06:53:44.367Z,26.90
2022-08-09T06:56:11.769Z,27.04
2022-08-09T07:00:48.935Z,27.15
2022-08-09T07:01:52.723Z,27.29
2022-08-09T07:04:19.920Z,27.39
2022-08-09T07:11:53.274Z,27.63
2022-08-09T07:14:26.567Z,27.78
2022-08-09T07:16:58.003Z,27.98
2022-08-09T07:19:26.095Z,28.07
2022-08-09T07:21:57.624Z,28.18
2022-08-09T07:24:32.642Z,28.37
2022-08-09T07:27:26.827Z,28.52
2022-08-09T07:35:02.798Z,29.03
2022-08-09T07:37:40.482Z,29.22
2022-08-09T07:40:16.758Z,29.32
2022-08-09T07:42:56.274Z,29.35
2022-08-09T07:45:39.257Z,29.47
2022-08-09T07:48:25.908Z,29.65
2022-08-09T07:54:34.265Z,30.14
2022-08-09T07:57:02.138Z,30.15
2022-08-09T07:59:45.496Z,30.21
2022-08-09T08:02:19.166Z,30.31
2022-08-09T08:04:48.951Z,30.49
2022-08-09T08:08:43.724Z,30.75
2022-08-09T08:15:24.236Z,31.11
2022-08-09T08:17:57.891Z,31.21
2022-08-09T08:20:30.146Z,31.40
2022-08-09T08:23:03.492Z,31.40
2022-08-09T08:25:46.515Z,31.46
2022-08-09T08:28:18.342Z,31.56
2022-08-09T08:31:04.676Z,31.55
2022-08-09T08:38:42.308Z,31.98
2022-08-09T08:41:12.367Z,32.23
2022-08-09T08:43:41.142Z,32.22
2022-08-09T08:46:32.016Z,32.26
2022-08-09T08:49:01.662Z,32.43
2022-08-09T08:51:41.903Z,32.39
2022-08-09T08:59:47.061Z,32.80
2022-08-09T09:02:30.917Z,32.90
2022-08-09T09:05:06.188Z,32.69
2022-08-09T09:07:42.495Z,33.03
2022-08-09T09:10:11.737Z,32.95
2022-08-09T09:12:40.775Z,32.83
2022-08-09T09:15:12.093Z,32.54
2022-08-09T09:22:23.884Z,32.77
2022-08-09T09:26:01.932Z,32.81
2022-08-09T09:28:05.298Z,32.99
2022-08-09T09:30:40.855Z,33.28
2022-08-09T09:33:13.931Z,32.59
2022-08-09T09:36:00.690Z,32.15
2022-08-09T09:45:30.701Z,32.41
2022-08-09T09:48:03.954Z,32.30
2022-08-09T09:50:49.697Z,32.39
2022-08-09T09:53:25.043Z,32.59
2022-08-09T09:56:20.090Z,32.45
2022-08-09T09:58:57.673Z,32.05
2022-08-09T10:06:42.985Z,31.89
2022-08-09T10:09:22.331Z,31.73
2022-08-09T10:12:07.860Z,31.50
2022-08-09T10:14:48.251Z,31.74
2022-08-09T10:17:39.339Z,32.05
2022-08-09T10:20:32.307Z,31.95
2022-08-09T10:28:04.351Z,31.58
2022-08-09T10:33:29.612Z,31.41
2022-08-09T10:36:12.155Z,31.94
2022-08-09T10:38:57.175Z,32.38
2022-08-09T10:41:28.397Z,32.81
2022-08-09T10:49:10.478Z,33.76
2022-08-09T10:51:45.600Z,34.09
2022-08-09T10:54:23.762Z,34.29
2022-08-09T10:57:07.642Z,33.95
2022-08-09T10:59:55.702Z,33.93
2022-08-09T11:03:13.435Z,34.00
2022-08-09T11:10:59.009Z,34.36
2022-08-09T11:13:49.916Z,34.61
2022-08-09T11:16:35.599Z,33.99
2022-08-09T11:19:10.302Z,33.26
2022-08-09T11:22:16.908Z,33.25
2022-08-09T11:25:08.226Z,33.41
2022-08-09T11:30:35.544Z,34.06
2022-08-09T11:33:06.259Z,34.23
2022-08-09T11:35:49.210Z,34.32
2022-08-09T11:38:22.377Z,34.49
2022-08-09T11:40:56.764Z,34.01
2022-08-09T11:43:41.859Z,34.24
2022-08-09T11:46:11.118Z,34.35
2022-08-09T11:54:01.569Z,34.33
2022-08-09T11:56:41.327Z,33.85
2022-08-09T11:59:11.726Z,33.39
2022-08-09T12:02:17.501Z,33.10
2022-08-09T12:04:37.309Z,32.59
2022-08-09T12:07:08.469Z,32.46
2022-08-09T12:12:46.298Z,32.31
2022-08-09T12:15:48.451Z,33.08
2022-08-09T12:18:16.618Z,33.39
2022-08-09T12:20:44.993Z,34.26
2022-08-09T12:23:14.394Z,34.84
2022-08-09T12:25:54.685Z,35.66
2022-08-09T12:31:30.956Z,35.42
2022-08-09T12:34:07.264Z,34.67
2022-08-09T12:36:36.137Z,33.31
2022-08-09T12:39:14.736Z,32.70
2022-08-09T12:41:42.575Z,32.20
2022-08-09T12:44:12.936Z,31.96
2022-08-09T12:49:21.771Z,33.37
2022-08-09T12:52:02.394Z,34.33
2022-08-09T12:55:03.134Z,35.51
2022-08-09T12:57:39.499Z,36.14
2022-08-09T13:00:25.285Z,36.58
2022-08-09T13:02:55.643Z,37.36
2022-08-09T13:10:27.367Z,37.19
2022-08-09T13:13:09.174Z,37.56
2022-08-09T13:15:52.220Z,36.63
2022-08-09T13:18:20.908Z,36.53
2022-08-09T13:21:20.557Z,35.75
2022-08-09T13:24:17.266Z,34.11
2022-08-09T13:32:17.315Z,33.85
2022-08-09T13:34:22.568Z,34.46
2022-08-09T13:36:52.495Z,34.99
2022-08-09T13:41:51.801Z,35.47
2022-08-09T13:42:12.337Z,35.88
2022-08-09T13:44:43.020Z,36.03
2022-08-09T13:50:01.824Z,35.48
2022-08-09T13:52:33.509Z,35.38
2022-08-09T13:55:05.101Z,35.42
2022-08-09T13:57:39.806Z,35.46
2022-08-09T14:00:13.058Z,35.95
2022-08-09T14:03:05.040Z,35.43
2022-08-09T14:05:58.822Z,35.37
2022-08-09T14:14:15.857Z,35.12
2022-08-09T14:16:14.875Z,34.67
2022-08-09T14:18:50.328Z,34.30
2022-08-09T14:21:22.685Z,33.46
2022-08-09T14:23:55.439Z,32.65
2022-08-09T14:26:31.581Z,32.57
2022-08-09T14:31:55.423Z,32.00
2022-08-09T14:34:32.324Z,31.95
2022-08-09T14:37:02.476Z,31.86
2022-08-09T14:39:46.212Z,32.04
2022-08-09T14:42:30.530Z,32.00
2022-08-09T14:46:40.014Z,32.05
2022-08-09T14:47:58.214Z,31.88
2022-08-09T14:55:32.371Z,31.74
2022-08-09T14:58:03.009Z,31.60
2022-08-09T15:00:32.318Z,31.35
2022-08-09T15:03:02.308Z,31.08
2022-08-09T15:05:32.195Z,30.82
2022-08-09T15:08:00.040Z,30.59
2022-08-09T15:10:31.778Z,30.50
2022-08-09T15:17:41.498Z,30.24
2022-08-09T15:20:15.137Z,30.14
2022-08-09T15:23:02.873Z,30.06
2022-08-09T15:25:47.155Z,30.05
2022-08-09T15:28:26.429Z,29.98
2022-08-09T15:31:03.170Z,29.94
2022-08-09T15:34:17.311Z,29.95
2022-08-09T15:41:31.291Z,29.89
2022-08-09T15:44:00.288Z,29.89
2022-08-09T15:46:32.828Z,29.85
2022-08-09T15:49:22.975Z,29.84
2022-08-09T15:52:02.785Z,29.70
2022-08-09T15:54:42.993Z,29.78
2022-08-09T15:57:18.708Z,29.72
2022-08-09T16:05:08.167Z,29.57
2022-08-09T16:07:38.981Z,29.48
2022-08-09T16:10:11.216Z,29.45
2022-08-09T16:12:50.143Z,29.45
2022-08-09T16:16:04.504Z,29.38
2022-08-09T16:18:08.524Z,29.30
2022-08-09T16:20:38.001Z,29.25
2022-08-09T16:27:47.973Z,29.18
2022-08-09T16:30:29.417Z,29.13
2022-08-09T16:33:09.469Z,29.11
2022-08-09T16:35:56.379Z,29.11
2022-08-09T16:38:25.463Z,29.08
2022-08-09T16:40:53.515Z,28.96
2022-08-09T16:50:29.087Z,28.78
2022-08-09T16:52:34.573Z,28.73
2022-08-09T16:55:02.584Z,28.74
2022-08-09T16:58:09.108Z,28.71
2022-08-09T17:00:18.702Z,28.65
2022-08-09T17:02:47.048Z,28.60
2022-08-09T17:08:43.599Z,28.58
2022-08-09T17:10:39.821Z,28.57
2022-08-09T17:13:10.575Z,28.47
2022-08-09T17:15:59.705Z,28.42
2022-08-09T17:18:26.739Z,28.34
2022-08-09T17:20:58.118Z,28.29
2022-08-09T17:24:20.213Z,28.16
2022-08-09T17:31:15.995Z,28.01
2022-08-09T17:33:43.857Z,27.95
2022-08-09T17:36:15.707Z,27.80
2022-08-09T17:38:57.487Z,27.72
2022-08-09T17:41:38.655Z,27.66
2022-08-09T17:44:41.963Z,27.57
2022-08-09T17:46:57.622Z,27.56
2022-08-09T17:54:10.063Z,27.10
2022-08-09T17:56:44.948Z,26.98
2022-08-09T17:59:16.797Z,26.96
2022-08-09T18:02:07.815Z,26.97
2022-08-09T18:04:32.326Z,26.93
2022-08-09T18:07:00.427Z,26.81
2022-08-09T18:09:41.145Z,26.82
2022-08-09T18:17:06.437Z,26.51
2022-08-09T18:20:56.930Z,26.54
2022-08-09T18:22:23.781Z,26.33
2022-08-09T18:24:52.969Z,26.26
2022-08-09T18:28:03.196Z,26.21
2022-08-09T18:30:38.593Z,26.24
2022-08-09T18:35:58.858Z,26.26
2022-08-09T18:38:28.374Z,26.41
2022-08-09T18:40:56.706Z,26.36
2022-08-09T18:43:25.456Z,26.34
2022-08-09T18:46:49.931Z,26.37
2022-08-09T18:48:42.470Z,26.34
2022-08-09T18:51:11.350Z,26.32
2022-08-09T18:58:39.062Z,26.31
2022-08-09T19:01:07.078Z,26.28
2022-08-09T19:03:57.900Z,26.09
2022-08-09T19:06:22.711Z,25.93
2022-08-09T19:08:55.005Z,25.98
2022-08-09T19:11:37.914Z,25.79
2022-08-09T19:16:50.153Z,25.86
2022-08-09T19:19:25.139Z,25.91
2022-08-09T19:22:04.391Z,26.01
2022-08-09T19:24:38.393Z,26.00
2022-08-09T19:27:21.806Z,26.01
2022-08-09T19:30:22.962Z,25.96
2022-08-09T19:32:38.260Z,26.03
2022-08-09T19:40:13.825Z,25.82
2022-08-09T19:42:49.517Z,25.88
2022-08-09T19:45:17.731Z,25.77
2022-08-09T19:47:46.163Z,25.63
2022-08-09T19:50:50.451Z,25.50
2022-08-09T19:53:02.453Z,25.53
2022-08-09T19:56:03.332Z,25.44
2022-08-09T20:04:17.252Z,25.46
2022-08-09T20:06:23.616Z,25.42
2022-08-09T20:08:56.824Z,25.43
2022-08-09T20:11:26.157Z,25.40
2022-08-09T20:13:55.069Z,25.41
2022-08-09T20:16:38.150Z,25.30
2022-08-09T20:19:47.491Z,25.38
2022-08-09T20:26:55.631Z,24.69
2022-08-09T20:29:28.748Z,24.44
2022-08-09T20:32:29.689Z,24.44
2022-08-09T20:34:53.130Z,24.28
2022-08-09T20:37:21.597Z,24.31
2022-08-09T20:40:15.846Z,24.30
2022-08-09T20:46:01.811Z,23.97
2022-08-09T20:48:11.043Z,23.87
2022-08-09T20:50:48.183Z,23.88
2022-08-09T20:53:35.712Z,23.98
2022-08-09T20:56:04.481Z,23.89
2022-08-09T20:58:33.124Z,23.75
2022-08-09T21:01:33.081Z,23.61
2022-08-09T21:06:37.219Z,23.52
2022-08-09T21:09:11.847Z,23.51
2022-08-09T21:14:31.217Z,23.27
2022-08-09T21:17:00.486Z,23.12
2022-08-09T21:20:19.397Z,23.04
2022-08-09T21:25:28.346Z,22.83
2022-08-09T21:28:07.068Z,22.85
2022-08-09T21:30:37.037Z,22.86
2022-08-09T21:33:08.655Z,22.86
2022-08-09T21:35:40.822Z,22.77
2022-08-09T21:38:20.964Z,22.73
2022-08-09T21:40:50.710Z,22.85
2022-08-09T21:47:38.334Z,22.82
2022-08-09T21:50:06.813Z,22.86
2022-08-09T21:52:34.326Z,22.78
2022-08-09T21:55:05.683Z,22.88
2022-08-09T21:57:38.229Z,22.70
2022-08-09T22:00:26.285Z,22.48
2022-08-09T22:06:32.980Z,22.06
2022-08-09T22:09:00.876Z,21.92
2022-08-09T22:12:06.670Z,21.81
2022-08-09T22:14:16.221Z,21.52
2022-08-09T22:16:44.878Z,21.35
2022-08-09T22:19:59.273Z,21.27
2022-08-09T22:22:00.596Z,21.22
2022-08-09T22:29:45.998Z,21.10
2022-08-09T22:32:29.957Z,21.16
2022-08-09T22:35:06.159Z,21.10
2022-08-09T22:37:35.647Z,21.16
2022-08-09T22:40:10.587Z,21.02
2022-08-09T22:42:47.331Z,20.97
2022-08-09T22:48:50.377Z,20.87
2022-08-09T22:51:19.772Z,20.77
2022-08-09T22:54:02.776Z,20.94
2022-08-09T22:56:33.876Z,20.87
2022-08-09T22:59:05.964Z,20.95
2022-08-09T23:01:49.928Z,20.88
2022-08-09T23:04:18.207Z,20.81
2022-08-09T23:11:47.097Z,20.66
2022-08-09T23:14:17.171Z,20.71
2022-08-09T23:16:45.457Z,20.66
2022-08-09T23:19:13.348Z,20.62
2022-08-09T23:21:40.964Z,20.55
2022-08-09T23:24:08.725Z,20.55
2022-08-09T23:26:36.518Z,20.52
2022-08-09T23:31:41.965Z,20.60
2022-08-09T23:34:09.585Z,20.73
2022-08-09T23:36:37.452Z,20.82
2022-08-09T23:39:06.928Z,20.76
2022-08-09T23:41:35.038Z,20.80
2022-08-09T23:44:03.226Z,20.79
2022-08-09T23:46:31.369Z,20.72
2022-08-09T23:54:03.634Z,20.47
2022-08-09T23:56:52.451Z,20.43
2022-08-09T23:59:20.758Z,20.40
